createdAt,value
2023-04-27T00:00:22.158Z,2.60
2023-04-27T00:03:24.900Z,2.20
2023-04-27T00:06:29.006Z,2.40
2023-04-27T00:09:31.492Z,3.20
2023-04-27T00:12:34.067Z,2.87
2023-04-27T00:15:36.548Z,3.03
2023-04-27T00:18:39.063Z,2.37
2023-04-27T00:21:42.960Z,2.13
2023-04-27T00:24:45.837Z,2.73
2023-04-27T00:27:48.998Z,2.72
2023-04-27T00:30:54.337Z,2.40
2023-04-27T00:33:56.943Z,3.03
2023-04-27T00:37:00.857Z,2.60
2023-04-27T00:40:05.891Z,2.50
2023-04-27T00:43:08.395Z,2.47
2023-04-27T00:46:11.248Z,2.63
2023-04-27T00:49:13.939Z,2.50
2023-04-27T00:52:18.104Z,3.03
2023-04-27T00:55:21.040Z,3.10
2023-04-27T00:58:23.637Z,3.08
2023-04-27T01:01:26.903Z,2.47
2023-04-27T01:04:30.028Z,2.40
2023-04-27T01:07:34.466Z,2.70
2023-04-27T01:10:37.471Z,2.90
2023-04-27T01:13:40.024Z,2.47
2023-04-27T01:16:42.658Z,2.40
2023-04-27T01:19:45.279Z,3.00
2023-04-27T01:22:49.168Z,2.73
2023-04-27T01:25:53.007Z,2.27
2023-04-27T01:28:55.577Z,2.60
2023-04-27T01:31:58.165Z,2.53
2023-04-27T01:35:00.669Z,2.47
2023-04-27T01:38:03.256Z,2.43
2023-04-27T01:41:09.072Z,2.70
2023-04-27T01:44:12.085Z,3.80
2023-04-27T01:47:16.434Z,2.80
2023-04-27T01:50:18.948Z,2.97
2023-04-27T01:53:21.872Z,3.17
2023-04-27T01:56:25.855Z,4.13
2023-04-27T01:59:28.629Z,3.00
2023-04-27T02:02:31.215Z,3.25
2023-04-27T02:05:33.821Z,2.90
2023-04-27T02:08:36.430Z,2.63
2023-04-27T02:11:40.263Z,2.90
2023-04-27T02:14:42.779Z,2.80
2023-04-27T02:17:46.114Z,3.17
2023-04-27T02:20:48.694Z,3.03
2023-04-27T02:23:51.552Z,3.10
2023-04-27T02:26:55.385Z,2.88
2023-04-27T02:29:57.882Z,2.97
2023-04-27T02:33:01.090Z,3.00
2023-04-27T02:36:03.706Z,3.20
2023-04-27T02:39:06.238Z,3.07
2023-04-27T02:42:10.158Z,2.93
2023-04-27T02:45:12.810Z,3.73
2023-04-27T02:48:15.403Z,3.90
2023-04-27T02:51:17.950Z,3.77
2023-04-27T02:54:20.409Z,2.70
2023-04-27T02:57:24.395Z,3.93
2023-04-27T03:00:27.126Z,3.13
2023-04-27T03:03:29.857Z,3.85
2023-04-27T03:06:32.382Z,3.83
2023-04-27T03:09:34.923Z,3.57
2023-04-27T03:12:38.792Z,3.00
2023-04-27T03:15:41.373Z,3.40
2023-04-27T03:18:43.912Z,3.53
2023-04-27T03:21:46.383Z,3.83
2023-04-27T03:24:48.877Z,3.83
2023-04-27T03:27:52.932Z,3.43
2023-04-27T03:30:55.519Z,3.90
2023-04-27T03:33:58.106Z,3.73
2023-04-27T03:37:00.805Z,3.87
2023-04-27T03:40:07.193Z,2.93
2023-04-27T03:43:11.129Z,3.73
2023-04-27T03:46:13.657Z,3.60
2023-04-27T03:49:16.433Z,3.27
2023-04-27T03:52:19.186Z,4.73
2023-04-27T03:55:22.001Z,3.53
2023-04-27T03:58:25.892Z,3.93
2023-04-27T04:01:28.623Z,3.30
2023-04-27T04:04:31.363Z,3.55
2023-04-27T04:07:34.408Z,3.58
2023-04-27T04:10:37.000Z,4.15
2023-04-27T04:13:42.137Z,3.63
2023-04-27T04:16:44.597Z,3.50
2023-04-27T04:19:47.129Z,4.80
2023-04-27T04:22:49.742Z,4.27
2023-04-27T04:25:52.725Z,4.23
2023-04-27T04:28:57.149Z,3.58
2023-04-27T04:31:59.740Z,4.03
2023-04-27T04:35:02.408Z,3.63
2023-04-27T04:38:04.904Z,4.43
2023-04-27T04:41:07.345Z,4.00
2023-04-27T04:44:11.515Z,4.20
2023-04-27T04:47:14.001Z,3.77
2023-04-27T04:50:16.853Z,4.13
2023-04-27T04:53:19.532Z,4.85
2023-04-27T04:56:22.146Z,4.93
2023-04-27T04:59:26.087Z,4.10
2023-04-27T05:02:28.780Z,3.50
2023-04-27T05:05:31.447Z,4.53
2023-04-27T05:08:34.116Z,3.87
2023-04-27T05:11:36.656Z,4.63
2023-04-27T05:14:40.585Z,4.30
2023-04-27T05:17:43.059Z,4.07
2023-04-27T05:20:45.826Z,4.20
2023-04-27T05:23:48.698Z,4.65
2023-04-27T05:26:51.228Z,5.15
2023-04-27T05:29:55.089Z,4.40
2023-04-27T05:32:57.739Z,4.20
2023-04-27T05:36:00.309Z,4.25
2023-04-27T05:39:02.884Z,4.20
2023-04-27T05:42:06.041Z,4.70
2023-04-27T05:45:10.954Z,3.90
2023-04-27T05:48:14.163Z,4.07
2023-04-27T05:51:17.589Z,4.07
2023-04-27T05:54:20.151Z,5.72
2023-04-27T05:57:22.832Z,4.73
2023-04-27T06:00:26.980Z,4.43
2023-04-27T06:03:30.571Z,4.10
2023-04-27T06:06:33.984Z,4.20
2023-04-27T06:09:36.728Z,4.57
2023-04-27T06:12:39.669Z,4.05
2023-04-27T06:15:43.542Z,4.20
2023-04-27T06:18:46.048Z,4.60
2023-04-27T06:21:48.528Z,3.80
2023-04-27T06:24:51.065Z,3.77
2023-04-27T06:27:53.591Z,4.40
2023-04-27T06:30:57.879Z,3.90
2023-04-27T06:34:01.193Z,4.03
2023-04-27T06:37:03.885Z,4.03
2023-04-27T06:40:08.231Z,4.80
2023-04-27T06:43:11.078Z,3.67
2023-04-27T06:46:15.064Z,3.90
2023-04-27T06:49:17.608Z,4.73
2023-04-27T06:52:20.416Z,4.27
2023-04-27T06:55:23.810Z,5.28
2023-04-27T06:58:27.195Z,4.75
2023-04-27T07:01:31.213Z,4.55
2023-04-27T07:04:33.990Z,4.67
2023-04-27T07:07:36.583Z,3.97
2023-04-27T07:10:39.125Z,4.27
2023-04-27T07:13:41.841Z,3.93
2023-04-27T07:16:46.613Z,4.40
2023-04-27T07:19:49.407Z,4.37
2023-04-27T07:22:52.013Z,4.28
2023-04-27T07:25:54.827Z,5.23
2023-04-27T07:28:57.589Z,5.03
2023-04-27T07:32:01.428Z,4.78
2023-04-27T07:35:05.692Z,3.90
2023-04-27T07:38:08.506Z,4.23
2023-04-27T07:41:11.112Z,4.07
2023-04-27T07:44:13.670Z,4.50
2023-04-27T07:47:18.648Z,4.13
2023-04-27T07:50:24.426Z,5.07
2023-04-27T07:53:27.312Z,4.20
2023-04-27T07:56:29.820Z,4.10
2023-04-27T07:59:32.691Z,3.43
2023-04-27T08:02:36.750Z,3.80
2023-04-27T08:05:39.850Z,3.90
2023-04-27T08:08:42.768Z,3.80
2023-04-27T08:11:45.641Z,3.83
2023-04-27T08:14:48.243Z,4.00
2023-04-27T08:17:52.379Z,3.80
2023-04-27T08:20:55.065Z,4.00
2023-04-27T08:23:57.622Z,3.95
2023-04-27T08:27:00.213Z,3.57
2023-04-27T08:30:02.746Z,4.53
2023-04-27T08:33:06.828Z,3.93
2023-04-27T08:36:09.996Z,4.33
2023-04-27T08:39:12.967Z,3.75
2023-04-27T08:42:16.112Z,2.85
2023-04-27T08:45:19.774Z,3.47
2023-04-27T08:48:23.736Z,3.03
2023-04-27T08:51:27.556Z,3.57
2023-04-27T08:54:30.986Z,2.67
2023-04-27T08:57:33.618Z,3.53
2023-04-27T09:00:40.216Z,3.72
2023-04-27T09:03:46.834Z,3.00
2023-04-27T09:06:50.077Z,3.17
2023-04-27T09:10:03.757Z,3.38
2023-04-27T09:16:09.206Z,3.70
2023-04-27T09:19:13.902Z,3.10
2023-04-27T09:22:16.678Z,3.40
2023-04-27T09:25:26.689Z,3.22
2023-04-27T09:28:30.912Z,3.20
2023-04-27T09:31:34.242Z,3.00
2023-04-27T09:34:41.952Z,3.30
2023-04-27T09:37:44.941Z,2.80
2023-04-27T09:40:47.823Z,3.13
2023-04-27T09:43:50.359Z,2.50
2023-04-27T09:46:54.081Z,2.53
2023-04-27T09:50:00.762Z,2.70
2023-04-27T09:53:03.969Z,3.10
2023-04-27T09:56:22.260Z,2.60
2023-04-27T09:59:47.918Z,2.83
2023-04-27T10:02:58.724Z,2.60
2023-04-27T10:06:33.358Z,2.60
2023-04-27T10:09:37.815Z,3.67
2023-04-27T10:12:40.690Z,2.43
2023-04-27T10:15:43.275Z,3.10
2023-04-27T10:18:52.943Z,3.20
2023-04-27T10:22:00.482Z,3.10
2023-04-27T10:25:14.458Z,2.70
2023-04-27T10:28:17.885Z,3.17
2023-04-27T10:34:22.899Z,2.93
2023-04-27T10:37:39.673Z,2.97
2023-04-27T10:40:42.541Z,3.20
2023-04-27T10:43:45.295Z,2.83
2023-04-27T10:46:52.048Z,3.20
2023-04-27T10:49:55.274Z,3.50
2023-04-27T10:53:03.550Z,3.30
2023-04-27T10:56:07.897Z,3.00
2023-04-27T10:59:10.483Z,3.07
2023-04-27T11:02:13.114Z,3.75
2023-04-27T11:05:19.724Z,2.85
2023-04-27T11:08:24.314Z,2.87
2023-04-27T11:11:26.852Z,3.33
2023-04-27T11:14:30.349Z,3.60
2023-04-27T11:17:33.433Z,3.37
2023-04-27T11:20:36.099Z,3.28
2023-04-27T11:23:40.053Z,2.85
2023-04-27T11:26:42.649Z,2.83
2023-04-27T11:29:45.757Z,3.10
2023-04-27T11:32:48.683Z,3.40
2023-04-27T11:35:51.451Z,2.67
2023-04-27T11:39:00.104Z,2.95
2023-04-27T11:42:16.474Z,3.20
2023-04-27T11:45:19.007Z,3.57
2023-04-27T11:48:22.778Z,3.03
2023-04-27T11:51:26.923Z,3.20
2023-04-27T11:54:31.276Z,2.87
2023-04-27T11:57:36.186Z,3.10
2023-04-27T12:00:38.749Z,3.20
2023-04-27T12:03:41.782Z,3.08
2023-04-27T12:09:48.385Z,3.13
2023-04-27T12:12:50.968Z,3.03
2023-04-27T12:15:53.500Z,3.50
2023-04-27T12:18:56.144Z,3.05
2023-04-27T12:21:59.130Z,2.78
2023-04-27T12:25:03.055Z,3.17
2023-04-27T12:28:06.170Z,3.00
2023-04-27T12:31:08.835Z,3.20
2023-04-27T12:34:11.707Z,3.17
2023-04-27T12:37:14.409Z,3.08
2023-04-27T12:40:18.441Z,2.95
2023-04-27T12:43:21.046Z,2.87
2023-04-27T12:46:23.654Z,3.30
2023-04-27T12:49:27.404Z,3.20
2023-04-27T12:52:30.418Z,3.25
2023-04-27T12:58:37.428Z,3.30
2023-04-27T13:01:39.987Z,3.03
2023-04-27T13:04:42.825Z,3.78
2023-04-27T13:07:45.535Z,3.60
2023-04-27T13:10:49.893Z,3.10
2023-04-27T13:13:52.473Z,3.30
2023-04-27T13:16:55.126Z,2.90
2023-04-27T13:19:57.683Z,3.40
2023-04-27T13:23:00.361Z,3.95
2023-04-27T13:26:04.287Z,3.55
2023-04-27T13:29:06.798Z,3.63
2023-04-27T13:32:09.384Z,3.60
2023-04-27T13:35:12.252Z,3.83
2023-04-27T13:38:14.830Z,3.10
2023-04-27T13:41:18.778Z,3.10
2023-04-27T13:44:21.593Z,3.03
2023-04-27T13:47:24.391Z,2.80
2023-04-27T13:53:29.399Z,2.43
2023-04-27T13:56:33.245Z,2.97
2023-04-27T13:59:35.881Z,2.85
2023-04-27T14:05:41.317Z,2.92
2023-04-27T14:08:43.857Z,3.03
2023-04-27T14:11:56.364Z,2.75
2023-04-27T14:15:00.605Z,3.03
2023-04-27T14:18:03.580Z,2.80
2023-04-27T14:21:06.194Z,2.97
2023-04-27T14:24:08.912Z,2.75
2023-04-27T14:30:15.640Z,2.35
2023-04-27T14:33:18.266Z,2.30
2023-04-27T14:36:20.866Z,2.47
2023-04-27T14:39:23.400Z,2.15
2023-04-27T14:42:27.297Z,2.88
2023-04-27T14:45:39.753Z,2.27
2023-04-27T14:48:46.639Z,2.20
2023-04-27T14:51:49.173Z,2.17
2023-04-27T14:54:51.861Z,2.97
2023-04-27T14:57:55.731Z,2.25
2023-04-27T15:00:58.539Z,2.60
2023-04-27T15:04:01.459Z,2.45
2023-04-27T15:10:07.658Z,2.00
2023-04-27T15:13:11.845Z,2.27
2023-04-27T15:16:14.722Z,2.40
2023-04-27T15:19:17.295Z,2.13
2023-04-27T15:22:19.866Z,2.42
2023-04-27T15:25:22.780Z,2.67
2023-04-27T15:31:29.288Z,2.57
2023-04-27T15:34:32.023Z,2.28
2023-04-27T15:37:36.795Z,2.28
2023-04-27T15:40:39.714Z,2.80
2023-04-27T15:43:43.619Z,2.83
2023-04-27T15:46:46.997Z,2.47
2023-04-27T15:49:57.342Z,2.80
2023-04-27T15:53:00.554Z,2.67
2023-04-27T15:56:03.297Z,3.00
2023-04-27T15:59:08.112Z,3.53
2023-04-27T16:02:11.169Z,3.67
2023-04-27T16:05:13.818Z,3.00
2023-04-27T16:08:16.360Z,2.55
2023-04-27T16:11:18.920Z,2.90
2023-04-27T16:14:23.088Z,2.97
2023-04-27T16:17:25.716Z,3.00
2023-04-27T16:20:30.818Z,2.78
2023-04-27T16:23:33.475Z,2.43
2023-04-27T16:26:35.986Z,2.70
2023-04-27T16:29:39.890Z,3.03
2023-04-27T16:32:42.396Z,3.00
2023-04-27T16:35:45.002Z,3.00
2023-04-27T16:38:47.526Z,3.15
2023-04-27T16:41:51.036Z,3.60
2023-04-27T16:44:55.237Z,3.37
2023-04-27T16:47:59.752Z,2.67
2023-04-27T16:51:02.427Z,3.33
2023-04-27T16:54:05.111Z,3.15
2023-04-27T16:57:08.095Z,2.95
2023-04-27T17:03:15.679Z,2.77
2023-04-27T17:06:18.365Z,2.38
2023-04-27T17:09:20.931Z,3.17
2023-04-27T17:12:23.431Z,4.22
2023-04-27T17:15:28.692Z,2.80
2023-04-27T17:18:33.684Z,3.33
2023-04-27T17:21:36.212Z,3.53
2023-04-27T17:24:39.351Z,2.45
2023-04-27T17:30:45.996Z,2.63
2023-04-27T17:33:48.524Z,3.00
2023-04-27T17:36:51.041Z,3.45
2023-04-27T17:39:54.725Z,3.08
2023-04-27T17:42:57.860Z,2.60
2023-04-27T17:46:01.915Z,3.38
2023-04-27T17:49:12.190Z,3.17
2023-04-27T17:52:14.950Z,2.87
2023-04-27T17:55:17.645Z,2.80
2023-04-27T17:58:20.177Z,2.10
2023-04-27T18:01:24.380Z,2.60
2023-04-27T18:04:27.261Z,3.47
2023-04-27T18:07:29.936Z,2.72
2023-04-27T18:10:32.567Z,2.60
2023-04-27T18:13:35.108Z,2.70
2023-04-27T18:16:39.126Z,2.65
2023-04-27T18:19:41.720Z,2.70
2023-04-27T18:22:44.282Z,2.60
2023-04-27T18:25:46.897Z,2.50
2023-04-27T18:28:49.496Z,3.67
2023-04-27T18:31:54.051Z,3.63
2023-04-27T18:34:56.857Z,3.73
2023-04-27T18:37:59.393Z,3.05
2023-04-27T18:41:01.935Z,3.05
2023-04-27T18:44:05.756Z,3.00
2023-04-27T18:47:09.718Z,2.20
2023-04-27T18:50:13.742Z,2.60
2023-04-27T18:53:16.547Z,2.97
2023-04-27T18:56:19.308Z,3.50
2023-04-27T18:59:21.936Z,3.75
2023-04-27T19:02:26.217Z,3.60
2023-04-27T19:05:28.900Z,3.73
2023-04-27T19:08:31.483Z,3.72
2023-04-27T19:11:33.984Z,3.33
2023-04-27T19:14:36.544Z,3.30
2023-04-27T19:17:41.327Z,3.42
2023-04-27T19:20:43.988Z,3.70
2023-04-27T19:23:46.603Z,2.92
2023-04-27T19:26:49.329Z,4.03
2023-04-27T19:29:53.997Z,3.47
2023-04-27T19:32:58.101Z,3.20
2023-04-27T19:36:00.826Z,3.63
2023-04-27T19:39:03.813Z,3.55
2023-04-27T19:42:06.496Z,4.05
2023-04-27T19:45:10.752Z,3.53
2023-04-27T19:48:14.597Z,6.03
2023-04-27T19:51:17.159Z,4.70
2023-04-27T19:54:19.699Z,3.67
2023-04-27T19:57:22.727Z,4.20
2023-04-27T20:00:25.559Z,2.70
2023-04-27T20:03:29.751Z,3.53
2023-04-27T20:06:33.258Z,3.70
2023-04-27T20:09:35.975Z,2.70
2023-04-27T20:12:54.485Z,2.95
2023-04-27T20:15:59.178Z,3.97
2023-04-27T20:22:07.834Z,3.23
2023-04-27T20:25:10.660Z,3.63
2023-04-27T20:28:13.284Z,3.63
2023-04-27T20:31:15.924Z,3.67
2023-04-27T20:34:19.984Z,3.90
2023-04-27T20:37:23.181Z,5.10
2023-04-27T20:40:26.724Z,4.47
2023-04-27T20:46:32.013Z,3.93
2023-04-27T20:49:35.961Z,3.70
2023-04-27T20:52:38.780Z,3.70
2023-04-27T20:55:41.510Z,3.95
2023-04-27T20:58:44.162Z,3.53
2023-04-27T21:01:46.759Z,3.10
2023-04-27T21:04:50.952Z,3.40
2023-04-27T21:07:53.927Z,2.40
2023-04-27T21:10:57.213Z,2.78
2023-04-27T21:13:59.740Z,3.28
2023-04-27T21:17:02.388Z,3.27
2023-04-27T21:20:07.700Z,3.10
2023-04-27T21:23:10.432Z,3.20
2023-04-27T21:26:13.050Z,2.58
2023-04-27T21:29:16.405Z,3.38
2023-04-27T21:32:19.066Z,3.03
2023-04-27T21:35:23.174Z,3.15
2023-04-27T21:38:25.800Z,2.40
2023-04-27T21:41:28.336Z,2.38
2023-04-27T21:44:30.990Z,3.00
2023-04-27T21:47:33.530Z,2.60
2023-04-27T21:50:37.557Z,2.60
2023-04-27T21:53:40.341Z,2.97
2023-04-27T21:56:42.848Z,3.00
2023-04-27T21:59:45.352Z,3.27
2023-04-27T22:02:48.500Z,3.43
2023-04-27T22:05:52.647Z,3.50
2023-04-27T22:08:55.271Z,3.00
2023-04-27T22:11:57.808Z,3.10
2023-04-27T22:15:00.360Z,3.00
2023-04-27T22:18:06.615Z,3.13
2023-04-27T22:21:12.248Z,3.03
2023-04-27T22:24:15.017Z,3.17
2023-04-27T22:27:17.761Z,2.75
2023-04-27T22:30:20.260Z,2.93
2023-04-27T22:33:22.810Z,2.80
2023-04-27T22:36:26.749Z,3.03
2023-04-27T22:39:29.277Z,3.00
2023-04-27T22:42:31.783Z,3.20
2023-04-27T22:45:35.274Z,2.67
2023-04-27T22:48:39.193Z,2.83
2023-04-27T22:51:43.591Z,2.60
2023-04-27T22:54:46.093Z,2.67
2023-04-27T22:57:49.987Z,2.50
2023-04-27T23:00:52.514Z,2.87
2023-04-27T23:03:55.155Z,2.37
2023-04-27T23:06:59.027Z,2.83
2023-04-27T23:10:02.703Z,2.50
2023-04-27T23:13:05.274Z,2.80
2023-04-27T23:16:09.923Z,2.80
2023-04-27T23:19:12.754Z,2.47
2023-04-27T23:22:16.716Z,3.07
2023-04-27T23:25:19.222Z,3.00
2023-04-27T23:28:22.460Z,3.00
2023-04-27T23:31:25.082Z,3.92
2023-04-27T23:34:27.622Z,4.23
2023-04-27T23:37:31.484Z,3.33
2023-04-27T23:40:34.045Z,3.00
2023-04-27T23:43:36.498Z,3.33
2023-04-27T23:46:39.235Z,3.60
2023-04-27T23:49:43.915Z,2.88
2023-04-27T23:52:47.849Z,3.90
2023-04-27T23:55:50.397Z,4.10
2023-04-27T23:58:52.898Z,3.50
